Time;durP1;ratioP1;P1;durP2;ratioP2;P2;SDS_P1;SDS_P2;PMS_P1;PMS_P2;Temp;Humidity;BMP_temperature;BMP_pressure;BME280_temperature;BME280_humidity;BME280_pressure;Samples;Min_cycle;Max_cycle;Signal;HPM_P1;HPM_P2
2022/09/15 06:39:47;;;;;;;2.80;1.90;;;21.60;79.60;;;;;;5105499;27;20580;-64
2022/09/15 06:42:14;;;;;;;2.20;2.00;;;22.00;74.10;;;;;;5111304;28;20452;-63
2022/09/15 06:44:41;;;;;;;1.93;1.83;;;22.50;72.70;;;;;;5104443;28;20424;-65
2022/09/15 06:47:09;;;;;;;4.13;1.83;;;22.90;71.20;;;;;;5104467;28;20427;-64
2022/09/15 06:49:38;;;;;;;1.80;1.70;;;23.00;70.40;;;;;;5091466;28;21006;-65
2022/09/15 06:52:05;;;;;;;2.23;1.70;;;23.10;69.90;;;;;;5091190;28;20431;-64
2022/09/15 06:54:31;;;;;;;1.90;1.80;;;23.10;69.60;;;;;;5091304;28;20909;-65
2022/09/15 06:56:57;;;;;;;2.10;2.00;;;23.20;70.50;;;;;;5110549;28;20412;-65
2022/09/15 06:59:24;;;;;;;2.33;2.13;;;23.70;68.80;;;;;;5111492;28;20162;-65
2022/09/15 07:01:53;;;;;;;3.93;1.60;;;24.10;67.90;;;;;;5111334;28;20407;-67
2022/09/15 07:04:22;;;;;;;2.10;1.90;;;24.40;67.00;;;;;;5111262;28;20399;-64
2022/09/15 07:06:49;;;;;;;4.33;1.90;;;24.70;66.30;;;;;;5111217;28;20887;-66
2022/09/15 07:09:16;;;;;;;2.10;2.00;;;24.80;66.10;;;;;;5109807;28;20448;-65
2022/09/15 07:11:43;;;;;;;2.30;2.00;;;25.00;65.60;;;;;;5110923;28;20738;-64
2022/09/15 07:14:10;;;;;;;2.60;1.77;;;25.10;65.30;;;;;;5102744;28;20416;-63
2022/09/15 07:16:37;;;;;;;3.60;1.97;;;24.70;66.10;;;;;;5093638;28;20482;-64
2022/09/15 07:19:04;;;;;;;9.80;1.93;;;24.40;68.10;;;;;;5098149;28;20506;-63
2022/09/15 07:21:30;;;;;;;2.27;1.90;;;24.20;68.10;;;;;;5099956;28;20954;-63
2022/09/15 07:23:57;;;;;;;2.13;1.90;;;24.40;67.00;;;;;;5092715;28;20444;-63
2022/09/15 07:26:32;;;;;;;2.17;1.97;;;24.40;67.10;;;;;;5095988;28;20198;-64
2022/09/15 07:29:04;;;;;;;2.30;2.13;;;24.70;66.80;;;;;;5090784;28;20543;-64
2022/09/15 07:31:34;;;;;;;3.87;2.20;;;24.90;65.90;;;;;;5090472;28;20709;-64
2022/09/15 07:34:02;;;;;;;5.40;2.20;;;24.90;65.90;;;;;;5089557;28;20412;-64
2022/09/15 07:36:30;;;;;;;4.93;1.77;;;24.90;65.90;;;;;;5090389;28;20411;-64
2022/09/15 07:38:57;;;;;;;3.70;1.80;;;24.80;66.00;;;;;;5099749;28;20475;-65
2022/09/15 07:41:28;;;;;;;3.83;1.90;;;24.90;65.60;;;;;;5082681;28;20486;-66
2022/09/15 07:43:57;;;;;;;3.67;2.17;;;24.80;65.60;;;;;;5071838;28;20435;-66
2022/09/15 07:46:28;;;;;;;4.20;1.93;;;24.80;65.80;;;;;;5088255;28;20409;-65
2022/09/15 07:48:59;;;;;;;3.17;1.70;;;24.90;65.50;;;;;;5070728;28;20459;-67
2022/09/15 07:51:28;;;;;;;5.37;1.90;;;24.80;66.10;;;;;;5075047;28;20513;-66
2022/09/15 07:53:56;;;;;;;2.97;1.90;;;24.80;66.30;;;;;;5074546;28;20414;-66
2022/09/15 07:56:24;;;;;;;2.60;1.93;;;24.90;66.70;;;;;;5074457;28;20501;-66
2022/09/15 07:58:52;;;;;;;4.00;1.60;;;25.00;65.80;;;;;;5074440;28;20445;-64
2022/09/15 08:01:21;;;;;;;6.83;1.97;;;25.10;65.40;;;;;;5074635;28;20422;-66
2022/09/15 08:03:51;;;;;;;5.03;2.07;;;25.00;65.80;;;;;;5058067;28;20409;-66
2022/09/15 08:06:29;;;;;;;3.97;2.10;;;25.00;65.70;;;;;;5074430;28;20406;-63
2022/09/15 08:08:57;;;;;;;3.70;1.60;;;25.00;65.80;;;;;;5075477;28;20452;-63
2022/09/15 08:11:24;;;;;;;3.03;1.70;;;25.10;65.70;;;;;;5075796;28;20831;-63
2022/09/15 08:13:52;;;;;;;5.63;1.80;;;25.10;65.60;;;;;;5096002;28;20452;-64
2022/09/15 08:16:20;;;;;;;2.83;1.67;;;25.10;65.30;;;;;;5096768;28;20914;-67
2022/09/15 08:18:54;;;;;;;3.70;1.67;;;25.00;65.70;;;;;;5078280;28;21137;-62
2022/09/15 08:21:22;;;;;;;3.87;1.90;;;25.10;66.00;;;;;;5096457;28;20393;-64
2022/09/15 08:23:58;;;;;;;4.90;1.63;;;25.20;65.60;;;;;;5090163;28;20433;-63
2022/09/15 08:26:26;;;;;;;3.77;1.93;;;25.10;65.70;;;;;;5087610;28;20749;-64
2022/09/15 08:28:56;;;;;;;5.40;2.10;;;25.10;65.70;;;;;;5096314;28;20447;-67
2022/09/15 08:31:24;;;;;;;4.47;2.13;;;25.00;66.20;;;;;;5096192;28;20440;-64
2022/09/15 08:33:53;;;;;;;4.70;2.00;;;25.00;66.00;;;;;;5095772;28;20412;-63
2022/09/15 08:36:22;;;;;;;5.60;1.80;;;25.00;66.20;;;;;;5087103;28;20433;-67
2022/09/15 08:38:50;;;;;;;4.40;2.03;;;25.00;66.20;;;;;;5076350;28;20472;-66
2022/09/15 08:41:42;;;;;;;4.60;2.17;;;25.00;66.30;;;;;;5095237;28;20870;-67
2022/09/15 08:44:46;;;;;;;4.30;2.00;;;25.10;66.10;;;;;;5095355;28;20389;-67
2022/09/15 08:47:39;;;;;;;5.73;1.87;;;25.00;66.30;;;;;;5096027;28;20507;-67
2022/09/15 08:50:58;;;;;;;4.40;1.93;;;24.90;66.30;;;;;;5095141;28;20416;-67
2022/09/15 08:53:37;;;;;;;4.43;1.87;;;25.00;66.50;;;;;;5094234;28;20479;-66
2022/09/15 08:56:15;;;;;;;2.33;2.10;;;25.10;66.10;;;;;;5095332;28;20403;-66
2022/09/15 08:58:44;;;;;;;3.37;2.20;;;25.10;66.20;;;;;;5095323;28;20884;-66
2022/09/15 09:01:56;;;;;;;3.80;2.10;;;25.10;66.60;;;;;;5094207;28;20481;-67
2022/09/15 09:05:00;;;;;;;3.97;2.10;;;25.10;66.10;;;;;;5095815;28;20477;-68
2022/09/15 09:08:00;;;;;;;4.87;1.70;;;25.10;66.90;;;;;;5095953;28;20744;-69
2022/09/15 09:10:44;;;;;;;1.90;1.70;;;25.10;66.20;;;;;;5095249;28;20412;-67
2022/09/15 09:13:46;;;;;;;2.90;1.40;;;25.00;66.60;;;;;;5083000;28;20879;-67
2022/09/15 09:16:50;;;;;;;5.80;2.23;;;24.90;66.70;;;;;;5074040;28;20897;-67
2022/09/15 09:19:58;;;;;;;2.93;1.50;;;24.90;66.70;;;;;;5074112;28;20449;-68
2022/09/15 09:22:32;;;;;;;4.93;1.80;;;24.90;66.60;;;;;;5075377;28;20471;-68
2022/09/15 09:25:03;;;;;;;1.87;1.60;;;25.00;66.80;;;;;;5074070;28;20761;-67
2022/09/15 09:27:33;;;;;;;3.73;1.83;;;25.00;66.70;;;;;;5073601;28;20394;-68
2022/09/15 09:30:23;;;;;;;3.87;1.57;;;25.00;66.90;;;;;;5074999;28;20398;-65
2022/09/15 09:33:18;;;;;;;3.30;1.57;;;25.00;66.80;;;;;;5074954;28;20382;-67
2022/09/15 09:35:50;;;;;;;4.67;1.87;;;25.00;66.70;;;;;;5073704;28;20390;-65
2022/09/15 09:38:41;;;;;;;5.63;2.37;;;25.00;67.00;;;;;;5055961;28;20976;-63
2022/09/15 09:41:25;;;;;;;4.70;1.73;;;25.00;67.00;;;;;;5074830;28;20417;-64
2022/09/15 09:43:57;;;;;;;2.90;1.63;;;24.90;67.10;;;;;;5074044;28;20439;-64
2022/09/15 09:46:24;;;;;;;6.33;1.70;;;25.10;66.80;;;;;;5080918;28;20433;-65
2022/09/15 09:49:26;;;;;;;3.30;1.47;;;24.90;67.20;;;;;;5090427;28;21172;-65
2022/09/15 09:52:02;;;;;;;4.23;1.70;;;24.70;67.50;;;;;;5093541;28;20901;-65
2022/09/15 09:54:34;;;;;;;2.10;1.57;;;24.50;68.00;;;;;;5092122;28;20466;-64
2022/09/15 09:57:29;;;;;;;3.73;1.47;;;24.40;68.20;;;;;;5091381;28;20508;-65
2022/09/15 09:59:56;;;;;;;3.47;1.10;;;24.30;68.70;;;;;;5087352;28;20396;-64
2022/09/15 10:02:30;;;;;;;2.47;1.60;;;24.30;68.60;;;;;;5074161;28;20873;-64
2022/09/15 10:05:17;;;;;;;2.00;1.30;;;24.20;68.70;;;;;;5074504;28;20414;-65
2022/09/15 10:07:45;;;;;;;2.23;1.40;;;24.20;68.80;;;;;;5074266;28;20436;-64
2022/09/15 10:10:31;;;;;;;1.73;1.50;;;24.10;69.10;;;;;;5074183;28;20469;-65
2022/09/15 10:13:01;;;;;;;4.67;1.80;;;24.10;69.30;;;;;;5083407;28;20428;-65
2022/09/15 10:15:31;;;;;;;3.50;1.43;;;24.00;69.40;;;;;;5093033;28;20503;-65
2022/09/15 10:18:00;;;;;;;2.33;1.10;;;24.00;69.40;;;;;;5092745;28;20474;-65
2022/09/15 10:20:48;;;;;;;1.83;1.57;;;23.90;69.50;;;;;;5089228;28;20432;-65
2022/09/15 10:23:20;;;;;;;3.13;1.00;;;24.00;69.40;;;;;;5084230;28;20417;-65
2022/09/15 10:25:48;;;;;;;1.73;1.53;;;24.00;69.40;;;;;;5073024;28;20402;-65
2022/09/15 10:28:24;;;;;;;2.60;1.63;;;24.00;69.20;;;;;;5073167;28;20420;-65
2022/09/15 10:31:12;;;;;;;2.77;1.40;;;24.00;69.20;;;;;;5073054;28;20405;-64
2022/09/15 10:33:44;;;;;;;1.57;1.30;;;23.90;69.20;;;;;;5072968;28;20389;-64
2022/09/15 10:36:42;;;;;;;1.33;1.20;;;23.90;69.20;;;;;;5072909;28;20795;-65
2022/09/15 10:39:41;;;;;;;2.67;2.20;;;23.90;69.40;;;;;;5014510;28;21022;-64
2022/09/15 10:42:39;;;;;;;4.20;1.60;;;24.10;68.80;;;;;;5012086;28;20420;-63
2022/09/15 10:45:38;;;;;;;4.33;1.37;;;24.40;68.10;;;;;;5011956;28;20987;-65
2022/09/15 10:48:49;;;;;;;4.97;1.90;;;24.40;68.10;;;;;;5012237;28;20754;-69
2022/09/15 10:51:45;;;;;;;2.17;1.53;;;24.50;68.10;;;;;;5012190;28;20412;-63
2022/09/15 10:54:48;;;;;;;2.20;1.20;;;24.60;67.60;;;;;;5012178;28;20916;-68
2022/09/15 10:57:51;;;;;;;1.80;1.37;;;24.60;67.60;;;;;;5012268;28;20447;-68
2022/09/15 11:00:44;;;;;;;4.50;1.60;;;24.70;67.30;;;;;;5012059;28;20396;-68
2022/09/15 11:03:39;;;;;;;2.70;1.63;;;24.80;67.10;;;;;;5009689;28;20585;-69
2022/09/15 11:06:29;;;;;;;1.70;1.40;;;24.80;66.90;;;;;;5013494;28;20736;-68
2022/09/15 11:09:32;;;;;;;3.87;1.63;;;24.80;67.30;;;;;;5031254;28;20412;-66
